createdAt,value
2018-09-03T00:00:21.594Z,99.90
2018-09-03T00:02:49.118Z,99.90
2018-09-03T00:05:16.618Z,99.90
2018-09-03T00:07:44.031Z,99.90
2018-09-03T00:10:11.459Z,99.90
2018-09-03T00:12:38.880Z,99.90
2018-09-03T00:15:06.303Z,99.90
2018-09-03T00:17:33.742Z,99.90
2018-09-03T00:20:01.148Z,99.90
2018-09-03T00:22:28.589Z,99.90
2018-09-03T00:24:55.991Z,99.90
2018-09-03T00:27:23.403Z,99.90
2018-09-03T00:29:50.813Z,99.90
2018-09-03T00:32:23.811Z,99.90
2018-09-03T00:34:56.739Z,99.90
2018-09-03T00:37:29.704Z,99.90
2018-09-03T00:40:02.612Z,99.90
2018-09-03T00:42:35.487Z,99.90
2018-09-03T00:45:08.317Z,99.90
2018-09-03T00:47:35.816Z,99.90
2018-09-03T00:50:03.213Z,99.90
2018-09-03T00:52:30.609Z,99.90
2018-09-03T00:54:58.033Z,99.90
2018-09-03T00:57:25.484Z,99.90
2018-09-03T00:59:53.003Z,99.90
2018-09-03T01:02:20.460Z,99.90
2018-09-03T01:04:47.879Z,99.90
2018-09-03T01:07:15.283Z,99.90
2018-09-03T01:09:42.743Z,99.90
2018-09-03T01:12:10.280Z,99.90
2018-09-03T01:14:37.721Z,99.90
2018-09-03T01:17:05.175Z,99.90
2018-09-03T01:19:32.589Z,99.90
2018-09-03T01:22:00.013Z,99.90
2018-09-03T01:24:27.436Z,99.90
2018-09-03T01:26:54.887Z,99.90
2018-09-03T01:29:22.276Z,99.90
2018-09-03T01:31:53.478Z,99.90
2018-09-03T01:34:20.934Z,99.90
2018-09-03T01:36:48.356Z,99.90
2018-09-03T01:39:15.780Z,99.90
2018-09-03T01:41:43.198Z,99.90
2018-09-03T01:44:10.667Z,99.90
2018-09-03T01:46:38.080Z,99.90
2018-09-03T01:49:05.489Z,99.90
2018-09-03T01:51:32.879Z,99.90
2018-09-03T01:54:00.318Z,99.90
2018-09-03T01:56:27.803Z,99.90
2018-09-03T01:58:55.238Z,99.90
2018-09-03T02:01:22.666Z,99.90
2018-09-03T02:03:50.050Z,99.90
2018-09-03T02:06:17.556Z,99.90
2018-09-03T02:08:44.974Z,99.90
2018-09-03T02:11:12.371Z,99.90
2018-09-03T02:13:39.787Z,99.90
2018-09-03T02:16:07.210Z,99.90
2018-09-03T02:18:34.628Z,99.90
2018-09-03T02:21:02.063Z,99.90
2018-09-03T02:23:29.484Z,99.90
2018-09-03T02:25:56.960Z,99.90
2018-09-03T02:28:24.418Z,99.90
2018-09-03T02:30:51.883Z,99.90
2018-09-03T02:33:19.310Z,99.90
2018-09-03T02:35:46.803Z,99.90
2018-09-03T02:38:14.167Z,99.90
2018-09-03T02:40:41.620Z,99.90
2018-09-03T02:43:09.027Z,99.90
2018-09-03T02:45:36.423Z,99.90
2018-09-03T02:48:03.888Z,99.90
2018-09-03T02:50:31.273Z,99.90
2018-09-03T02:52:58.759Z,99.90
2018-09-03T02:55:26.148Z,99.90
2018-09-03T02:57:53.559Z,99.90
2018-09-03T03:00:25.111Z,99.90
2018-09-03T03:02:52.724Z,99.90
2018-09-03T03:05:20.131Z,99.90
2018-09-03T03:07:47.617Z,99.90
2018-09-03T03:10:15.035Z,99.90
2018-09-03T03:12:42.472Z,99.90
2018-09-03T03:15:11.048Z,99.90
2018-09-03T03:17:38.474Z,99.90
2018-09-03T03:20:05.997Z,99.90
2018-09-03T03:22:33.503Z,99.90
2018-09-03T03:25:01.006Z,99.90
2018-09-03T03:27:28.686Z,99.90
2018-09-03T03:29:56.080Z,99.90
2018-09-03T03:32:23.496Z,99.90
2018-09-03T03:34:50.979Z,99.90
2018-09-03T03:37:18.350Z,99.90
2018-09-03T03:39:45.784Z,99.90
2018-09-03T03:42:13.299Z,99.90
2018-09-03T03:44:40.694Z,99.90
2018-09-03T03:47:08.106Z,99.90
2018-09-03T03:49:35.528Z,99.90
2018-09-03T03:52:03.054Z,99.90
2018-09-03T03:54:30.496Z,99.90
2018-09-03T03:56:57.913Z,99.90
2018-09-03T03:59:25.517Z,99.90
2018-09-03T04:01:52.905Z,99.90
2018-09-03T04:04:20.368Z,99.90
2018-09-03T04:06:47.875Z,99.90
2018-09-03T04:09:15.273Z,99.90
2018-09-03T04:11:42.765Z,99.90
2018-09-03T04:14:10.200Z,99.90
2018-09-03T04:16:37.686Z,99.90
2018-09-03T04:19:05.083Z,99.90
2018-09-03T04:21:32.478Z,99.90
2018-09-03T04:23:59.892Z,99.90
2018-09-03T04:26:27.273Z,99.90
2018-09-03T04:28:54.748Z,99.90
2018-09-03T04:31:22.104Z,99.90
2018-09-03T04:33:49.587Z,99.90
2018-09-03T04:36:17.009Z,99.90
2018-09-03T04:38:44.473Z,99.90
2018-09-03T04:41:11.858Z,99.90
2018-09-03T04:43:39.280Z,99.90
2018-09-03T04:46:06.670Z,99.90
2018-09-03T04:48:34.067Z,99.90
2018-09-03T04:51:01.501Z,99.90
2018-09-03T04:53:28.902Z,99.90
2018-09-03T04:55:56.338Z,99.90
2018-09-03T04:58:23.832Z,99.90
2018-09-03T05:00:51.255Z,99.90
2018-09-03T05:03:18.639Z,99.90
2018-09-03T05:05:46.043Z,99.90
2018-09-03T05:08:13.510Z,99.90
2018-09-03T05:10:40.912Z,99.90
2018-09-03T05:13:08.290Z,99.90
2018-09-03T05:15:35.799Z,99.90
2018-09-03T05:18:03.198Z,99.90
2018-09-03T05:20:30.652Z,99.90
2018-09-03T05:22:58.280Z,99.90
2018-09-03T05:25:25.943Z,99.90
2018-09-03T05:27:53.337Z,99.90
2018-09-03T05:30:20.751Z,99.90
2018-09-03T05:32:48.142Z,99.90
2018-09-03T05:35:15.563Z,99.90
2018-09-03T05:37:42.980Z,99.90
2018-09-03T05:40:10.531Z,99.90
2018-09-03T05:42:38.023Z,99.90
2018-09-03T05:45:05.534Z,99.90
2018-09-03T05:47:32.931Z,99.90
2018-09-03T05:50:00.369Z,99.90
2018-09-03T05:52:27.775Z,99.90
2018-09-03T05:54:55.236Z,99.90
2018-09-03T05:57:22.714Z,99.90
2018-09-03T05:59:50.162Z,99.90
2018-09-03T06:02:17.602Z,99.90
2018-09-03T06:04:45.021Z,99.90
2018-09-03T06:07:12.432Z,99.90
2018-09-03T06:09:39.826Z,99.90
2018-09-03T06:12:07.401Z,99.90
2018-09-03T06:14:34.800Z,99.90
2018-09-03T06:17:02.303Z,99.90
2018-09-03T06:19:29.714Z,99.90
2018-09-03T06:21:57.178Z,99.90
2018-09-03T06:24:24.802Z,99.90
2018-09-03T06:26:52.174Z,99.90
2018-09-03T06:29:19.688Z,99.90
2018-09-03T06:31:47.136Z,99.90
2018-09-03T06:34:14.605Z,99.90
2018-09-03T06:36:42.004Z,99.90
2018-09-03T06:39:09.434Z,99.90
2018-09-03T06:41:36.873Z,99.90
2018-09-03T06:44:04.258Z,99.90
2018-09-03T06:46:31.682Z,99.90
2018-09-03T06:48:59.110Z,99.90
2018-09-03T06:51:26.510Z,99.90
2018-09-03T06:53:53.942Z,99.90
2018-09-03T06:56:21.352Z,99.90
2018-09-03T06:58:48.752Z,99.90
2018-09-03T07:01:16.250Z,99.90
2018-09-03T07:03:44.093Z,99.90
2018-09-03T07:06:11.720Z,99.90
2018-09-03T07:08:39.500Z,99.90
2018-09-03T07:11:07.141Z,99.90
2018-09-03T07:13:34.632Z,99.90
2018-09-03T07:16:02.066Z,99.90
2018-09-03T07:18:29.471Z,99.90
2018-09-03T07:20:56.968Z,99.90
2018-09-03T07:23:24.370Z,99.90
2018-09-03T07:25:51.813Z,99.90
2018-09-03T07:28:19.225Z,99.90
2018-09-03T07:30:46.635Z,99.90
2018-09-03T07:33:14.044Z,99.90
2018-09-03T07:35:41.527Z,99.90
2018-09-03T07:38:08.916Z,99.90
2018-09-03T07:40:36.324Z,99.90
2018-09-03T07:43:03.731Z,99.90
2018-09-03T07:45:31.131Z,99.90
2018-09-03T07:47:58.612Z,99.90
2018-09-03T07:50:26.002Z,99.90
2018-09-03T07:52:53.414Z,99.90
2018-09-03T07:55:20.888Z,99.90
2018-09-03T07:57:48.389Z,99.90
2018-09-03T08:00:15.796Z,99.90
2018-09-03T08:02:43.236Z,99.90
2018-09-03T08:05:10.746Z,99.90
2018-09-03T08:07:38.175Z,99.90
2018-09-03T08:10:06.183Z,99.90
2018-09-03T08:12:33.587Z,99.90
2018-09-03T08:15:01.043Z,99.90
2018-09-03T08:17:28.578Z,99.90
2018-09-03T08:19:56.061Z,99.90
2018-09-03T08:22:23.409Z,99.90
2018-09-03T08:24:50.815Z,99.90
2018-09-03T08:27:18.272Z,99.90
2018-09-03T08:29:46.125Z,99.90
2018-09-03T08:32:13.542Z,99.90
2018-09-03T08:34:40.952Z,99.90
2018-09-03T08:37:08.613Z,99.90
2018-09-03T08:39:36.075Z,99.90
2018-09-03T08:42:03.510Z,99.90
2018-09-03T08:44:30.928Z,99.90
2018-09-03T08:46:59.184Z,99.90
2018-09-03T08:49:26.582Z,99.90
2018-09-03T08:54:28.091Z,99.90
2018-09-03T08:56:55.606Z,99.90
2018-09-03T08:59:23.004Z,99.90
2018-09-03T09:01:50.399Z,99.90
2018-09-03T09:04:17.896Z,99.90
2018-09-03T09:06:45.300Z,99.90
2018-09-03T09:09:12.753Z,99.90
2018-09-03T09:11:40.166Z,99.90
2018-09-03T09:14:07.556Z,99.90
2018-09-03T09:16:35.036Z,99.90
2018-09-03T09:19:02.431Z,99.90
2018-09-03T09:21:29.848Z,99.90
2018-09-03T09:23:57.347Z,99.90
2018-09-03T09:26:24.760Z,99.90
2018-09-03T09:28:52.192Z,99.90
2018-09-03T09:31:19.592Z,99.90
2018-09-03T09:33:47.040Z,99.90
2018-09-03T09:36:14.438Z,99.90
2018-09-03T09:38:41.892Z,99.90
2018-09-03T09:41:09.308Z,99.90
2018-09-03T09:43:36.730Z,99.90
2018-09-03T09:46:04.177Z,99.50
2018-09-03T09:48:31.609Z,97.90
2018-09-03T09:50:59.066Z,97.30
2018-09-03T09:53:26.496Z,97.30
2018-09-03T09:55:53.876Z,97.70
2018-09-03T09:58:21.291Z,97.80
2018-09-03T10:00:54.327Z,97.60
2018-09-03T10:03:21.784Z,98.50
2018-09-03T10:05:49.189Z,97.50
2018-09-03T10:08:16.623Z,97.10
2018-09-03T10:10:44.086Z,98.00
2018-09-03T10:13:11.486Z,98.80
2018-09-03T10:15:38.877Z,97.30
2018-09-03T10:18:06.335Z,97.90
2018-09-03T10:20:33.757Z,97.50
2018-09-03T10:23:01.192Z,95.40
2018-09-03T10:25:28.592Z,94.70
2018-09-03T10:27:56.165Z,93.90
2018-09-03T10:30:23.572Z,93.80
2018-09-03T10:32:50.971Z,92.90
2018-09-03T10:35:18.370Z,94.30
2018-09-03T10:37:45.774Z,92.60
2018-09-03T10:40:13.317Z,93.50
2018-09-03T10:42:40.719Z,91.80
2018-09-03T10:45:08.185Z,91.90
2018-09-03T10:47:35.639Z,91.60
2018-09-03T10:50:03.042Z,91.70
2018-09-03T10:52:30.427Z,92.10
2018-09-03T10:54:57.825Z,92.70
2018-09-03T10:57:25.275Z,93.00
2018-09-03T10:59:52.691Z,93.40
2018-09-03T11:02:20.126Z,93.40
2018-09-03T11:04:47.551Z,93.00
2018-09-03T11:07:14.937Z,93.00
2018-09-03T11:09:42.454Z,93.10
2018-09-03T11:12:09.866Z,93.30
2018-09-03T11:14:37.280Z,93.80
2018-09-03T11:17:04.692Z,94.10
2018-09-03T11:19:34.534Z,94.30
2018-09-03T11:22:02.148Z,92.60
2018-09-03T11:24:29.616Z,92.80
2018-09-03T11:26:57.106Z,93.00
2018-09-03T11:29:24.656Z,92.90
2018-09-03T11:31:52.112Z,93.10
2018-09-03T11:34:19.520Z,91.50
2018-09-03T11:36:47.028Z,91.90
2018-09-03T11:39:14.463Z,91.00
2018-09-03T11:41:42.128Z,91.60
2018-09-03T11:44:09.551Z,91.70
2018-09-03T11:46:37.160Z,91.00
2018-09-03T11:49:04.795Z,92.50
2018-09-03T11:51:32.191Z,92.10
2018-09-03T11:53:59.648Z,91.20
2018-09-03T11:56:27.086Z,91.00
2018-09-03T11:58:54.483Z,91.30
2018-09-03T12:01:21.884Z,92.10
2018-09-03T12:03:49.295Z,92.40
2018-09-03T12:06:16.710Z,91.70
2018-09-03T12:08:44.216Z,92.00
2018-09-03T12:11:11.684Z,91.70
2018-09-03T12:13:39.134Z,91.50
2018-09-03T12:16:09.757Z,91.60
2018-09-03T12:18:37.392Z,92.20
2018-09-03T12:21:04.886Z,92.00
2018-09-03T12:23:32.404Z,91.30
2018-09-03T12:26:00.220Z,92.30
2018-09-03T12:28:27.638Z,92.30
2018-09-03T12:30:55.268Z,91.70
2018-09-03T12:33:22.677Z,92.00
2018-09-03T12:35:50.391Z,92.80
2018-09-03T12:38:17.824Z,93.00
2018-09-03T12:40:45.244Z,93.60
2018-09-03T12:43:12.668Z,93.50
2018-09-03T12:45:45.678Z,93.60
2018-09-03T12:48:13.143Z,93.90
2018-09-03T12:50:40.767Z,93.90
2018-09-03T12:53:08.293Z,94.60
2018-09-03T12:55:35.777Z,94.10
2018-09-03T12:58:03.664Z,94.80
2018-09-03T13:00:38.672Z,94.20
2018-09-03T13:02:58.527Z,94.30
2018-09-03T13:05:25.880Z,94.20
2018-09-03T13:07:53.697Z,94.00
2018-09-03T13:10:21.224Z,94.10
2018-09-03T13:12:48.636Z,94.30
2018-09-03T13:15:16.128Z,94.30
2018-09-03T13:17:43.670Z,94.40
2018-09-03T13:20:11.149Z,94.50
2018-09-03T13:22:38.546Z,94.70
2018-09-03T13:25:05.965Z,95.00
2018-09-03T13:27:33.396Z,95.10
2018-09-03T13:30:00.956Z,94.90
2018-09-03T13:32:28.376Z,94.90
2018-09-03T13:34:55.867Z,95.10
2018-09-03T13:37:23.320Z,94.40
2018-09-03T13:39:50.788Z,95.10
2018-09-03T13:42:18.348Z,95.50
2018-09-03T13:44:45.720Z,94.30
2018-09-03T13:47:13.215Z,94.40
2018-09-03T13:49:40.634Z,94.30
2018-09-03T13:52:08.045Z,94.50
2018-09-03T13:54:35.505Z,94.90
2018-09-03T13:57:02.905Z,95.10
2018-09-03T13:59:30.351Z,94.80
2018-09-03T14:01:57.968Z,94.50
2018-09-03T14:04:25.526Z,94.50
2018-09-03T14:06:53.003Z,95.00
2018-09-03T14:09:20.424Z,95.10
2018-09-03T14:11:47.809Z,94.40
2018-09-03T14:14:15.242Z,94.30
2018-09-03T14:16:42.667Z,94.30
2018-09-03T14:19:10.050Z,94.20
2018-09-03T14:21:37.600Z,94.40
2018-09-03T14:24:05.015Z,94.30
2018-09-03T14:26:32.482Z,94.40
2018-09-03T14:28:59.932Z,94.40
2018-09-03T14:31:27.352Z,94.80
2018-09-03T14:33:54.746Z,95.20
2018-09-03T14:36:22.146Z,94.40
2018-09-03T14:38:49.539Z,94.90
2018-09-03T14:41:17.007Z,94.90
2018-09-03T14:43:44.695Z,95.00
2018-09-03T14:46:12.121Z,95.00
2018-09-03T14:48:39.595Z,94.70
2018-09-03T14:51:07.026Z,94.80
2018-09-03T14:53:34.463Z,95.00
2018-09-03T14:56:01.872Z,95.70
2018-09-03T14:58:29.302Z,95.30
2018-09-03T15:00:57.007Z,95.10
2018-09-03T15:03:24.447Z,94.70
2018-09-03T15:05:51.860Z,95.10
2018-09-03T15:08:19.305Z,95.00
2018-09-03T15:10:46.671Z,95.10
2018-09-03T15:13:14.094Z,95.30
2018-09-03T15:15:41.690Z,94.80
2018-09-03T15:18:09.202Z,94.90
2018-09-03T15:20:36.682Z,95.40
2018-09-03T15:23:04.071Z,94.70
2018-09-03T15:25:31.518Z,94.80
2018-09-03T15:27:58.924Z,95.00
2018-09-03T15:30:26.658Z,95.50
2018-09-03T15:32:54.095Z,94.70
2018-09-03T15:35:21.596Z,94.80
2018-09-03T15:37:49.016Z,95.40
2018-09-03T15:40:16.502Z,95.20
2018-09-03T15:42:44.020Z,95.20
2018-09-03T15:45:11.508Z,94.70
2018-09-03T15:47:38.956Z,94.90
2018-09-03T15:50:06.306Z,95.20
2018-09-03T15:52:33.779Z,95.10
2018-09-03T15:55:01.185Z,95.30
2018-09-03T15:57:28.607Z,95.00
2018-09-03T15:59:56.009Z,94.90
2018-09-03T16:02:23.453Z,95.00
2018-09-03T16:04:50.860Z,95.60
2018-09-03T16:07:18.378Z,95.10
2018-09-03T16:09:46.116Z,95.70
2018-09-03T16:12:13.551Z,95.90
2018-09-03T16:14:41.011Z,95.80
2018-09-03T16:17:08.416Z,95.60
2018-09-03T16:19:37.527Z,95.50
2018-09-03T16:22:05.039Z,95.80
2018-09-03T16:24:32.422Z,95.90
2018-09-03T16:26:59.838Z,96.00
2018-09-03T16:29:27.279Z,95.80
2018-09-03T16:31:54.735Z,95.90
2018-09-03T16:34:22.148Z,95.90
2018-09-03T16:36:49.738Z,96.20
2018-09-03T16:39:17.116Z,96.60
2018-09-03T16:41:44.534Z,96.60
2018-09-03T16:44:11.956Z,96.60
2018-09-03T16:46:39.502Z,96.50
2018-09-03T16:49:06.979Z,96.80
2018-09-03T16:51:34.342Z,96.40
2018-09-03T16:54:01.774Z,96.30
2018-09-03T16:56:29.332Z,96.80
2018-09-03T16:58:56.768Z,96.90
2018-09-03T17:01:24.394Z,96.90
2018-09-03T17:03:51.711Z,96.80
2018-09-03T17:06:19.103Z,97.00
2018-09-03T17:08:46.591Z,96.90
2018-09-03T17:11:14.021Z,97.20
2018-09-03T17:13:41.440Z,97.40
2018-09-03T17:16:08.896Z,97.30
2018-09-03T17:18:36.375Z,97.50
2018-09-03T17:21:03.770Z,97.40
2018-09-03T17:23:31.269Z,97.50
2018-09-03T17:25:59.812Z,97.90
2018-09-03T17:28:27.296Z,97.70
2018-09-03T17:30:54.834Z,97.80
2018-09-03T17:33:22.339Z,97.90
2018-09-03T17:35:49.767Z,97.80
2018-09-03T17:38:17.254Z,98.00
2018-09-03T17:40:44.655Z,97.90
2018-09-03T17:43:12.113Z,97.80
2018-09-03T17:45:40.690Z,98.10
2018-09-03T17:48:08.127Z,98.20
2018-09-03T17:50:35.586Z,98.60
2018-09-03T17:53:03.000Z,98.40
2018-09-03T17:55:30.390Z,99.30
2018-09-03T17:57:57.938Z,98.90
2018-09-03T18:00:25.322Z,99.00
2018-09-03T18:02:52.940Z,99.00
2018-09-03T18:05:20.360Z,99.30
2018-09-03T18:07:47.798Z,99.40
2018-09-03T18:10:15.283Z,99.70
2018-09-03T18:12:42.706Z,99.90
2018-09-03T18:15:10.218Z,99.90
2018-09-03T18:17:37.682Z,99.90
2018-09-03T18:20:05.192Z,99.90
2018-09-03T18:22:32.608Z,99.90
2018-09-03T18:25:00.064Z,99.90
2018-09-03T18:27:27.524Z,99.90
2018-09-03T18:29:54.911Z,99.90
2018-09-03T18:32:22.312Z,99.90
2018-09-03T18:34:49.747Z,99.90
2018-09-03T18:37:17.286Z,99.90
2018-09-03T18:39:44.724Z,99.90
2018-09-03T18:42:12.208Z,99.90
2018-09-03T18:44:39.614Z,99.90
2018-09-03T18:47:07.068Z,99.90
2018-09-03T18:49:35.460Z,99.90
2018-09-03T18:52:02.904Z,99.90
2018-09-03T18:54:30.350Z,99.90
2018-09-03T18:56:57.861Z,99.90
2018-09-03T18:59:25.295Z,99.90
2018-09-03T19:01:52.701Z,99.90
2018-09-03T19:04:20.216Z,99.90
2018-09-03T19:06:47.714Z,99.90
2018-09-03T19:09:15.208Z,99.90
2018-09-03T19:11:42.598Z,99.90
2018-09-03T19:14:10.012Z,99.90
2018-09-03T19:16:37.976Z,99.90
2018-09-03T19:19:05.386Z,99.90
2018-09-03T19:21:32.876Z,99.90
2018-09-03T19:24:00.700Z,99.90
2018-09-03T19:26:28.116Z,99.90
2018-09-03T19:28:55.511Z,99.90
2018-09-03T19:31:22.942Z,99.90
2018-09-03T19:33:50.577Z,99.90
2018-09-03T19:36:17.979Z,99.90
2018-09-03T19:38:45.411Z,99.90
2018-09-03T19:41:12.816Z,99.90
2018-09-03T19:43:40.202Z,99.90
2018-09-03T19:46:07.615Z,99.90
2018-09-03T19:48:35.068Z,99.90
2018-09-03T19:51:02.422Z,99.90
2018-09-03T19:53:29.881Z,99.90
2018-09-03T19:55:57.255Z,99.90
2018-09-03T19:58:24.680Z,99.90
2018-09-03T20:00:52.090Z,99.90
2018-09-03T20:03:19.704Z,99.90
2018-09-03T20:05:47.242Z,99.90
2018-09-03T20:08:14.754Z,99.90
2018-09-03T20:10:42.123Z,99.90
2018-09-03T20:13:09.862Z,99.90
2018-09-03T20:15:37.312Z,99.90
2018-09-03T20:18:04.698Z,99.90
2018-09-03T20:20:32.359Z,99.90
2018-09-03T20:22:59.924Z,99.90
2018-09-03T20:25:27.374Z,99.90
2018-09-03T20:27:54.918Z,99.90
2018-09-03T20:30:22.348Z,99.90
2018-09-03T20:32:49.782Z,99.90
2018-09-03T20:35:17.284Z,99.90
2018-09-03T20:37:44.882Z,99.90
2018-09-03T20:40:12.413Z,99.90
2018-09-03T20:42:39.825Z,99.90
2018-09-03T20:45:07.271Z,99.90
2018-09-03T20:47:34.730Z,99.90
2018-09-03T20:50:02.138Z,99.90
2018-09-03T20:52:29.602Z,99.90
2018-09-03T20:54:57.041Z,99.90
2018-09-03T20:57:24.964Z,99.90
2018-09-03T20:59:52.411Z,99.90
2018-09-03T21:02:19.813Z,99.90
2018-09-03T21:04:47.239Z,99.90
2018-09-03T21:07:14.774Z,99.90
2018-09-03T21:09:42.196Z,99.90
2018-09-03T21:12:09.631Z,99.90
2018-09-03T21:14:37.115Z,99.90
2018-09-03T21:17:04.880Z,99.90
2018-09-03T21:19:32.338Z,99.90
2018-09-03T21:21:59.831Z,99.90
2018-09-03T21:24:27.142Z,99.90
2018-09-03T21:26:54.556Z,99.90
2018-09-03T21:29:22.080Z,99.90
2018-09-03T21:31:49.473Z,99.90
2018-09-03T21:34:16.916Z,99.90
2018-09-03T21:36:44.456Z,99.90
2018-09-03T21:39:11.922Z,99.90
2018-09-03T21:41:39.275Z,99.90
2018-09-03T21:44:06.690Z,99.90
2018-09-03T21:46:34.111Z,99.90
2018-09-03T21:49:01.554Z,99.90
2018-09-03T21:51:28.975Z,99.90
2018-09-03T21:53:56.372Z,99.90
2018-09-03T21:56:23.788Z,99.90
2018-09-03T21:58:51.213Z,99.90
2018-09-03T22:01:18.687Z,99.90
2018-09-03T22:03:46.165Z,99.90
2018-09-03T22:06:13.576Z,99.90
2018-09-03T22:08:41.040Z,99.90
2018-09-03T22:11:08.685Z,99.90
2018-09-03T22:13:36.268Z,99.90
2018-09-03T22:16:03.655Z,99.90
2018-09-03T22:18:31.151Z,99.90
2018-09-03T22:20:58.602Z,99.90
2018-09-03T22:23:26.086Z,99.90
2018-09-03T22:25:53.491Z,99.90
2018-09-03T22:28:20.876Z,99.90
2018-09-03T22:30:48.303Z,99.90
2018-09-03T22:33:15.708Z,99.90
2018-09-03T22:35:43.222Z,99.90
2018-09-03T22:38:10.647Z,99.90
2018-09-03T22:40:38.076Z,99.90
2018-09-03T22:43:05.479Z,99.90
2018-09-03T22:45:32.896Z,99.90
2018-09-03T22:48:00.295Z,99.90
2018-09-03T22:50:27.698Z,99.90
2018-09-03T22:52:55.086Z,99.90
2018-09-03T22:55:22.527Z,99.90
2018-09-03T22:57:49.960Z,99.90
2018-09-03T23:00:17.396Z,99.90
2018-09-03T23:02:46.531Z,99.90
2018-09-03T23:05:14.040Z,99.90
2018-09-03T23:07:41.448Z,99.90
2018-09-03T23:10:09.211Z,99.90
2018-09-03T23:12:36.715Z,99.90
2018-09-03T23:15:04.308Z,99.90
2018-09-03T23:17:31.836Z,99.90
2018-09-03T23:19:59.268Z,99.90
2018-09-03T23:22:26.764Z,99.90
2018-09-03T23:24:54.523Z,99.90
2018-09-03T23:27:21.922Z,99.90
2018-09-03T23:29:49.420Z,99.90
2018-09-03T23:32:16.835Z,99.90
2018-09-03T23:34:44.374Z,99.90
2018-09-03T23:37:11.780Z,99.90
2018-09-03T23:39:39.192Z,99.90
2018-09-03T23:42:06.672Z,99.90
2018-09-03T23:44:34.106Z,99.90
2018-09-03T23:47:01.646Z,99.90
2018-09-03T23:49:29.079Z,99.90
2018-09-03T23:51:56.603Z,99.90
2018-09-03T23:54:24.043Z,99.90
2018-09-03T23:56:51.458Z,99.90
2018-09-03T23:59:18.848Z,99.90
